Mutunopolis, Brazil
Current Conditions -  °F | °C
As of 6:00 PM on Friday 24 Oct 2014 (Local Time) from SBBR Reporting Station
Broken Clouds Broken Clouds  
Wind Chill: 84°   Ceiling: 7000
Heat Index: 84°   Visibility: 6mi
Dew Point: 57°   Wind: 7mph
Humidity: 40%   Direction: 280°W
Pressure: 29.97"   Gusts: NA
Location:  13.73°S, 49.27°W
Report Text: SBBR 242000Z 28006KT 9999 FEW040 FEW045TCU BKN070 29/14 Q1015
Loading
Personal Weather Stations






























Interactive Weather Map
Tropical Storm Tracking
New forecast layout! Learn more

10-Day Weather Forecast

Advertisements
Track Severe Weather on mobile